Terminal Aerodrome Forecast
Issued by NWS Tallahassee, FL

Home | Current Version | Previous Version | Text Only | Print | Product List | Glossary On
Versions: 1 2 3 4 5 6 7 8 9 10 11 12 13 14 15 16 17 18 19 20
000
FTUS42 KTAE 200706 AAA
TAFTLH
TAF AMD
KTLH 200706Z 2007/2106 00000KT 3SM BR FEW002
      TEMPO 2007/2011 1SM BR BKN002
     FM201100 00000KT 3SM BR FEW002
      TEMPO 2011/2013 1SM BR BKN002
     FM201400 15005KT P6SM SKC=

USA.gov is the U.S. government's official web portal to all federal, state and local government web resources and services.